PAUN

Details ICAO PAUN (UNK)
Name Unalakleet
Region USA (Alaska)
Timezone America/Anchorage (UTC-8.0)
Plans Departing 97
Arriving 67
Stats Elevation 27 ft / 8 m (AMSL)
Location 63.886600° -160.797000°
Runways 2
Magnetic Variation 11.203° E
Sunrise 2020-09-29 16:49:17 UTC / 2020-09-29 08:49:17 Local
Sunset 2020-09-30 04:19:43 UTC / 2020-09-29 20:19:43 Local
Advertisement - Login to hide

Runways

ID Width Length Bearing (true/mag) Surface Threshold Overrun Markings Lighting
08 75 ft / 23 m 1,902 ft / 580 m 98.42° / 87.21° ASPHALT 0 ft / 0 m 190 ft / 58 m VISUAL EDGE THRESHOLD
15 150 ft / 46 m 5,906 ft / 1,800 m 164.16° / 152.96° ASPHALT 0 ft / 0 m 0 ft / 0 m PREC-APP EDGE THRESHOLD MALSR
26 75 ft / 23 m 1,902 ft / 580 m 278.43° / 267.22° ASPHALT 0 ft / 0 m 0 ft / 0 m VISUAL EDGE THRESHOLD
33 150 ft / 46 m 5,906 ft / 1,800 m 344.17° / 332.97° ASPHALT 0 ft / 0 m 125 ft / 38 m APP EDGE THRESHOLD REIL-UNI

Map

Weather


0- 5 10 15 20 25 30 35+ Temperature / °C

Clouds and Precipitation
Forecast for 2020-09-29 12:00 UTC. Updated an hour ago

Ground ~20,000 ft ~40,000 ft Winds

METAR

PAUN 290956Z AUTO 08004KT 10SM OVC015 03/02 A2990 RMK AO2 SLP128 T00280017 PNO $

TAF

PAUN 290529Z 2906/3006 23003KT P6SM SCT250 FM291600 08005KT P6SM BKN040 FM300000 03009KT P6SM BKN040

Frequencies

Recorded 132.25 MHz AWOS 3
Unicom 123.00 MHz UNK CTAF
Tower 135.25 MHz Anchorage ARTCC
Warning: Do not use this data for real-world aviation or navigation. No guarantee of current accuracy is given.